Terminal Aerodrome Forecast
Issued by NWS Louisville, KY

Home | Current Version | Previous Version | Text Only | Print | Product List | Glossary On
Versions: 1 2 3 4 5 6 7 8 9 10 11 12 13 14
000
FTUS43 KLMK 250500
TAFBWG
TAF
KBWG 250520Z 2506/2606 16007KT P6SM SCT050 BKN250
     FM251000 20011KT P6SM BKN035
     FM251300 21009KT P6SM BKN025
     FM251800 22008KT P6SM BKN050=

USA.gov is the U.S. government's official web portal to all federal, state and local government web resources and services.